Time;durP1;ratioP1;P1;durP2;ratioP2;P2;SDS_P1;SDS_P2;PMS_P1;PMS_P2;Temp;Humidity;BMP_temperature;BMP_pressure;BME280_temperature;BME280_humidity;BME280_pressure;Samples;Min_cycle;Max_cycle;Signal;HPM_P1;HPM_P2
2022/08/17 00:04:52;;;;;;;4.47;2.27;;;;;;;23.77;69.64;99726.16;5139229;27;20686;-63
2022/08/17 00:08:40;;;;;;;3.10;1.90;;;;;;;24.05;67.33;99725.63;5125711;28;20084;-62
2022/08/17 00:15:39;;;;;;;4.57;2.00;;;;;;;24.08;65.09;99719.19;5055488;28;20037;-66
2022/08/17 00:18:57;;;;;;;5.27;2.07;;;;;;;24.18;63.10;99728.13;5043978;28;20064;-65
2022/08/17 00:21:52;;;;;;;3.23;2.23;;;;;;;24.30;62.45;99723.63;5055585;28;20393;-66
2022/08/17 00:25:28;;;;;;;3.40;2.20;;;;;;;24.52;64.38;99734.25;5055057;28;20075;-61
2022/08/17 00:28:52;;;;;;;2.73;2.10;;;;;;;24.03;62.16;99738.22;5055354;28;20068;-64
2022/08/17 00:31:58;;;;;;;4.93;2.10;;;;;;;23.63;64.38;99736.06;5055392;28;21079;-65
2022/08/17 00:35:12;;;;;;;3.27;2.20;;;;;;;23.40;64.70;99729.03;5054484;28;20336;-62
2022/08/17 00:38:20;;;;;;;3.13;2.20;;;;;;;23.05;66.45;99732.63;4944131;29;21115;-66
2022/08/17 00:41:24;;;;;;;4.75;2.10;;;;;;;22.95;67.63;99720.94;4925507;29;20055;-65
2022/08/17 00:47:08;;;;;;;7.37;2.20;;;;;;;23.41;70.13;99725.38;4897640;29;20356;-63
2022/08/17 00:49:53;;;;;;;8.77;2.17;;;;;;;23.65;68.48;99717.28;5051619;28;20051;-64
2022/08/17 00:52:37;;;;;;;4.70;2.33;;;;;;;23.72;65.69;99714.97;5062022;28;20080;-65
2022/08/17 00:55:21;;;;;;;6.33;2.20;;;;;;;23.96;66.72;99731.69;5031332;28;20050;-61
2022/08/17 00:58:10;;;;;;;3.30;1.87;;;;;;;24.39;66.22;99720.19;5060637;28;20052;-62
2022/08/17 01:01:18;;;;;;;2.97;2.20;;;;;;;24.75;68.31;99712.78;5062934;28;20052;-64
2022/08/17 01:04:00;;;;;;;4.20;1.80;;;;;;;25.01;66.07;99723.06;5055535;28;20056;-61
2022/08/17 01:06:52;;;;;;;2.97;1.90;;;;;;;25.19;65.04;99710.84;5048861;28;20057;-62
2022/08/17 01:09:29;;;;;;;4.73;1.70;;;;;;;25.24;62.25;99719.34;5048596;28;20207;-64
2022/08/17 01:12:18;;;;;;;1.90;1.70;;;;;;;25.10;61.04;99695.56;5049052;28;20064;-64
2022/08/17 01:15:00;;;;;;;4.40;1.80;;;;;;;25.36;61.07;99712.94;5073692;28;20078;-60
2022/08/17 01:17:38;;;;;;;1.97;1.73;;;;;;;25.55;62.56;99713.97;5122815;28;20059;-62
2022/08/17 01:20:24;;;;;;;2.73;1.90;;;;;;;25.49;59.30;99717.22;5091704;28;20261;-61
2022/08/17 01:23:27;;;;;;;3.60;1.70;;;;;;;24.79;58.54;99666.13;5076969;28;20085;-63
2022/08/17 01:26:16;;;;;;;4.17;1.53;;;;;;;25.05;59.97;99719.19;5123914;28;20236;-60
2022/08/17 01:28:56;;;;;;;2.77;1.70;;;;;;;25.33;61.79;99713.16;5115320;28;20066;-61
2022/08/17 01:31:54;;;;;;;3.83;1.80;;;;;;;24.83;59.32;99714.81;5123503;28;20061;-63
2022/08/17 01:34:53;;;;;;;5.23;1.80;;;;;;;24.50;59.65;99720.16;5074690;28;20304;-62
2022/08/17 01:37:36;;;;;;;2.50;1.63;;;;;;;24.49;60.20;99707.81;5070152;28;20090;-61
2022/08/17 01:40:37;;;;;;;2.20;1.30;;;;;;;24.63;59.63;99719.16;5123246;28;20063;-64
2022/08/17 01:43:23;;;;;;;4.13;1.70;;;;;;;24.78;58.67;99720.53;5089666;28;20051;-62
2022/08/17 01:46:18;;;;;;;3.08;1.85;;;;;;;24.96;59.50;99727.00;5113907;28;20055;-62
2022/08/17 01:48:59;;;;;;;2.63;2.10;;;;;;;24.95;59.07;99719.94;5123567;28;20066;-63
2022/08/17 01:51:43;;;;;;;1.83;1.63;;;;;;;25.10;58.28;99720.47;5123278;28;20161;-60
2022/08/17 01:54:33;;;;;;;2.90;1.80;;;;;;;25.05;58.86;99708.47;5104211;28;20047;-63
2022/08/17 01:57:25;;;;;;;6.93;1.80;;;;;;;25.07;58.09;99727.91;5083357;28;20051;-65
2022/08/17 02:00:33;;;;;;;7.83;1.97;;;;;;;24.81;60.24;99728.31;5123056;28;20055;-65
2022/08/17 02:03:38;;;;;;;5.18;1.65;;;;;;;24.60;59.54;99703.38;5112923;28;20035;-62
2022/08/17 02:09:36;;;;;;;2.93;1.70;;;;;;;24.87;58.61;99721.59;5122809;28;20058;-63
2022/08/17 02:12:47;;;;;;;8.70;2.20;;;;;;;25.04;59.31;99714.81;5121304;27;20055;-62
2022/08/17 02:15:47;;;;;;;6.97;1.90;;;;;;;25.30;59.45;99713.44;5121286;28;20120;-62
2022/08/17 02:18:36;;;;;;;6.20;1.83;;;;;;;25.24;58.70;99654.31;5121671;28;20043;-62
2022/08/17 02:24:53;;;;;;;5.80;1.90;;;;;;;25.33;56.49;99691.78;5122303;28;20086;-62
2022/08/17 02:27:47;;;;;;;2.60;1.80;;;;;;;25.27;56.73;99689.66;5085400;28;20075;-61
2022/08/17 02:30:36;;;;;;;4.87;2.17;;;;;;;25.22;57.14;99691.88;5110443;28;20043;-64
2022/08/17 02:33:47;;;;;;;3.43;1.70;;;;;;;25.04;56.31;99658.69;5003636;28;20075;-63
2022/08/17 02:36:55;;;;;;;3.27;1.57;;;;;;;25.29;54.77;99700.22;5059863;28;20041;-61
2022/08/17 02:40:17;;;;;;;5.37;1.80;;;;;;;25.45;55.68;99695.22;4358656;27;22991798;-60
2022/08/17 02:43:26;;;;;;;3.97;1.47;;;;;;;25.91;56.71;99701.03;5149334;27;20096;-62
2022/08/17 02:46:26;;;;;;;;;;;;;;;26.14;58.32;99702.50;5132578;27;20114;-63
2022/08/17 02:49:59;;;;;;;1.83;1.57;;;;;;;26.38;57.86;99711.94;5150645;27;19977;-63
2022/08/17 02:53:10;;;;;;;4.97;1.90;;;;;;;26.74;57.39;99720.31;5133612;27;20059;-62
2022/08/17 02:56:19;;;;;;;4.23;1.60;;;;;;;26.67;54.98;99704.78;5148230;27;20189;-61
2022/08/17 02:59:40;;;;;;;4.87;1.77;;;;;;;26.71;56.30;99715.22;5149450;27;20106;-62
2022/08/17 03:02:42;;;;;;;1.80;1.50;;;;;;;26.83;55.98;99708.72;5150096;27;20076;-61
2022/08/17 03:08:29;;;;;;;3.70;1.77;;;;;;;26.24;55.15;99714.06;5106240;28;20058;-63
2022/08/17 03:11:11;;;;;;;2.10;1.70;;;;;;;25.90;54.62;99702.00;5104772;28;20060;-61
2022/08/17 03:13:51;;;;;;;3.13;1.43;;;;;;;25.79;55.57;99714.50;5106968;28;20102;-62
2022/08/17 03:16:48;;;;;;;7.70;2.00;;;;;;;25.70;56.49;99714.47;5104978;28;20051;-61
2022/08/17 03:19:49;;;;;;;5.07;1.80;;;;;;;25.65;56.25;99689.94;5059639;28;20064;-63
2022/08/17 03:22:39;;;;;;;5.33;1.70;;;;;;;26.06;56.23;99715.72;5072276;28;20047;-61
2022/08/17 03:25:57;;;;;;;3.20;1.53;;;;;;;26.21;55.90;99722.38;5104789;28;20060;-63
2022/08/17 03:29:36;;;;;;;2.70;1.50;;;;;;;26.47;54.90;99724.50;5078923;28;20102;-60
2022/08/17 03:33:25;;;;;;;2.50;1.60;;;;;;;26.42;53.70;99718.72;4994874;28;20285;-57
2022/08/17 03:36:46;;;;;;;3.60;1.53;;;;;;;26.67;53.31;99720.88;5036668;28;20130;-62
2022/08/17 03:40:34;;;;;;;3.87;1.73;;;;;;;26.74;53.58;99720.31;5024590;28;20101;-62
2022/08/17 03:44:01;;;;;;;3.53;1.60;;;;;;;26.92;54.15;99718.59;4998619;28;20120;-61
2022/08/17 03:57:47;;;;;;;2.17;1.50;;;;;;;27.11;52.66;99718.56;4894426;29;20056;-61
2022/08/17 04:00:56;;;;;;;8.33;2.30;;;;;;;27.39;54.41;99721.34;4923200;29;20076;-61
2022/08/17 04:04:14;;;;;;;3.08;1.52;;;;;;;27.62;52.69;99715.59;4924730;29;20116;-63
2022/08/17 04:07:33;;;;;;;1.87;1.27;;;;;;;27.82;50.70;99717.22;4868353;29;20462;-62
2022/08/17 04:11:12;;;;;;;3.63;1.37;;;;;;;27.61;50.80;99714.75;5000583;28;20054;-62
2022/08/17 04:14:49;;;;;;;1.40;1.30;;;;;;;27.35;50.90;99719.94;4996032;28;20050;-61
2022/08/17 04:18:16;;;;;;;1.80;1.30;;;;;;;27.14;50.75;99716.59;5042417;28;20056;-64
2022/08/17 04:25:18;;;;;;;2.70;1.30;;;;;;;26.41;55.55;99720.56;5063140;28;20110;-62
2022/08/17 04:31:58;;;;;;;7.82;1.85;;;;;;;26.25;58.78;99721.09;5091481;28;20051;-64
2022/08/17 04:35:28;;;;;;;9.13;1.93;;;;;;;26.13;59.17;99719.53;5047997;28;20347;-63
2022/08/17 04:53:05;;;;;;;4.97;1.50;;;;;;;26.73;55.27;99730.16;4971979;28;20058;-65
2022/08/17 04:56:25;;;;;;;10.70;1.93;;;;;;;26.66;56.53;99734.44;4971800;28;20078;-64
2022/08/17 05:00:09;;;;;;;4.10;2.10;;;;;;;26.97;55.51;99727.06;4955243;28;20051;-63
2022/08/17 05:03:12;;;;;;;3.27;1.90;;;;;;;27.19;56.97;99725.06;4969153;28;20079;-65
2022/08/17 05:10:06;;;;;;;2.67;1.50;;;;;;;27.92;55.81;99734.13;4901573;29;20063;-65
2022/08/17 05:19:16;;;;;;;13.50;2.60;;;;;;;27.64;50.43;99729.72;4891624;29;20014;-64
2022/08/17 05:22:19;;;;;;;;;;;;;;;27.59;51.56;99737.38;4923158;29;20048;-65
2022/08/17 05:25:31;;;;;;;4.47;1.50;;;;;;;27.47;52.12;99742.91;4887495;29;19938;-62
2022/08/17 05:29:06;;;;;;;7.00;1.90;;;;;;;27.42;52.38;99753.22;4885996;29;20092;-63
2022/08/17 05:32:19;;;;;;;3.90;1.90;;;;;;;27.44;52.85;99740.53;4869416;29;20072;-67
2022/08/17 05:35:39;;;;;;;5.70;1.63;;;;;;;27.47;54.13;99734.00;4885485;29;20115;-64
2022/08/17 05:38:36;;;;;;;;;;;;;;;27.61;53.47;99740.72;4848031;29;20318;-64
2022/08/17 05:41:37;;;;;;;5.63;2.03;;;;;;;27.48;53.64;99741.94;4810996;29;19927;-62
2022/08/17 05:44:57;;;;;;;16.07;2.50;;;;;;;27.45;53.77;99747.56;4922887;29;20099;-65
2022/08/17 05:47:56;;;;;;;26.75;4.20;;;;;;;27.44;53.97;99748.56;4916304;29;20052;-63
2022/08/17 05:51:42;;;;;;;5.17;2.07;;;;;;;27.10;53.56;99692.72;4947517;29;21061;-63
2022/08/17 05:55:35;;;;;;;7.53;1.90;;;;;;;27.23;51.66;99747.91;4951572;29;20055;-67
2022/08/17 05:58:49;;;;;;;10.00;3.53;;;;;;;27.29;52.94;99752.72;4933663;28;20065;-62
2022/08/17 06:02:08;;;;;;;2.53;1.60;;;;;;;27.29;51.75;99758.09;4950214;29;20561;-65
2022/08/17 06:09:44;;;;;;;41.67;4.30;;;;;;;27.44;52.28;99764.66;4913783;29;20048;-66
2022/08/17 06:13:50;;;;;;;5.93;1.73;;;;;;;27.16;51.27;99730.66;4913842;29;20070;-64
2022/08/17 06:25:44;;;;;;;9.03;2.00;;;;;;;27.32;53.20;99761.31;4919538;29;20066;-66
2022/08/17 06:32:15;;;;;;;7.43;1.90;;;;;;;27.18;54.81;99755.50;4916763;28;20062;-65
2022/08/17 06:35:58;;;;;;;6.70;1.60;;;;;;;27.06;52.68;99768.25;4979711;28;20059;-67
2022/08/17 06:39:37;;;;;;;18.53;3.07;;;;;;;27.01;52.57;99771.38;4978909;28;20094;-64
2022/08/17 06:46:26;;;;;;;15.60;2.87;;;;;;;26.73;55.08;99734.69;5044937;28;20041;-64
2022/08/17 06:50:03;;;;;;;5.37;1.93;;;;;;;27.04;54.71;99781.81;5059093;28;20044;-64
2022/08/17 06:56:51;;;;;;;7.80;1.70;;;;;;;26.71;54.53;99763.47;5086397;28;20134;-67
2022/08/17 07:00:33;;;;;;;;;;;;;;;;;;;;;
2022/08/17 07:04:53;;;;;;;8.00;1.77;;;;;;;26.78;54.89;99786.88;5087707;28;20044;-64
2022/08/17 07:08:30;;;;;;;5.30;2.00;;;;;;;26.77;54.38;99795.06;5088495;28;20070;-66
2022/08/17 07:18:42;;;;;;;3.00;2.03;;;;;;;26.78;54.68;99791.38;4976970;28;20046;-64
2022/08/17 07:21:45;;;;;;;6.47;2.77;;;;;;;26.70;54.84;99775.19;5009616;28;20057;-64
2022/08/17 07:24:43;;;;;;;23.63;3.43;;;;;;;26.72;54.59;99782.09;5009325;28;20126;-63
2022/08/17 07:27:22;;;;;;;16.33;2.15;;;;;;;26.75;52.91;99803.25;5013313;28;20061;-64
2022/08/17 07:33:41;;;;;;;14.57;2.63;;;;;;;26.88;54.72;99802.97;5010381;28;20053;-65
2022/08/17 07:36:36;;;;;;;12.17;2.10;;;;;;;26.42;54.05;99737.47;4989431;28;20485;-61
2022/08/17 07:39:32;;;;;;;4.37;1.63;;;;;;;26.77;53.45;99805.78;5012437;28;20062;-64
2022/08/17 07:42:44;;;;;;;9.57;1.63;;;;;;;26.46;52.29;99798.69;5014768;28;20046;-63
2022/08/17 07:48:48;;;;;;;7.23;1.90;;;;;;;26.40;54.73;99803.72;4981238;28;20041;-62
2022/08/17 08:32:35;;;;;;;21.53;3.07;;;;;;;26.28;59.46;99811.03;4905949;29;20063;-62
2022/08/17 08:35:30;;;;;;;21.10;2.97;;;;;;;26.14;59.20;99804.25;4905162;29;20116;-68
2022/08/17 08:38:42;;;;;;;20.83;2.10;;;;;;;26.07;59.40;99813.78;4905161;29;20064;-64
2022/08/17 08:41:38;;;;;;;18.43;2.77;;;;;;;25.94;60.06;99818.53;4904661;29;20088;-64
2022/08/17 08:44:57;;;;;;;12.80;2.63;;;;;;;25.82;60.36;99820.41;4927756;28;20085;-65
2022/08/17 08:48:20;;;;;;;9.97;2.00;;;;;;;25.37;60.43;99760.06;5030934;28;20089;-67
2022/08/17 08:51:45;;;;;;;11.27;2.30;;;;;;;25.58;61.56;99823.38;5080131;28;20171;-69
2022/08/17 08:55:06;;;;;;;28.53;4.10;;;;;;;25.39;62.07;99829.47;5050983;28;20052;-63
2022/08/17 08:58:03;;;;;;;22.07;3.10;;;;;;;25.28;63.08;99827.69;5030754;28;20052;-65
2022/08/17 09:01:12;;;;;;;7.73;2.20;;;;;;;25.16;63.40;99823.34;5071167;28;20044;-66
2022/08/17 09:04:29;;;;;;;8.63;2.10;;;;;;;25.04;64.12;99829.75;5033777;28;20052;-62
2022/08/17 09:08:08;;;;;;;10.03;2.57;;;;;;;24.80;64.78;99825.47;5046260;28;20048;-67
2022/08/17 09:11:14;;;;;;;6.50;2.40;;;;;;;24.49;65.43;99829.81;5083482;28;20116;-65
2022/08/17 09:17:37;;;;;;;5.20;2.00;;;;;;;23.98;67.36;99833.81;5131459;27;20312;-64
2022/08/17 09:23:58;;;;;;;7.07;2.73;;;;;;;23.47;68.21;99836.91;5132271;27;20073;-67
2022/08/17 09:29:43;;;;;;;5.03;2.20;;;;;;;23.11;69.59;99852.03;5132906;27;20059;-66
2022/08/17 09:32:24;;;;;;;43.80;4.97;;;;;;;22.99;69.99;99847.66;5132640;27;20107;-65
2022/08/17 09:35:33;;;;;;;18.23;3.47;;;;;;;22.88;70.30;99851.06;5118958;27;20061;-64
2022/08/17 09:38:34;;;;;;;21.50;3.87;;;;;;;22.72;70.84;99856.69;5132394;27;20064;-65
2022/08/17 09:41:46;;;;;;;7.40;2.87;;;;;;;22.57;71.56;99857.81;5130907;27;20070;-67
2022/08/17 09:44:33;;;;;;;148.47;11.40;;;;;;;22.40;71.99;99870.53;5132417;27;20047;-66
2022/08/17 09:47:29;;;;;;;89.60;7.67;;;;;;;22.11;72.71;99855.75;5133154;27;20043;-67
2022/08/17 09:50:23;;;;;;;70.77;7.07;;;;;;;21.95;74.30;99867.47;5131628;27;20092;-67
2022/08/17 09:53:23;;;;;;;52.27;6.13;;;;;;;21.96;75.08;99889.59;5131934;27;20043;-64
2022/08/17 09:59:57;;;;;;;27.73;3.63;;;;;;;21.59;77.06;99891.28;5133143;27;20047;-67
2022/08/17 10:03:15;;;;;;;;;;;;;;;;;;;;;
2022/08/17 10:05:56;;;;;;;9.07;2.80;;;;;;;20.94;78.50;99853.03;5063639;28;20089;-61
2022/08/17 10:09:06;;;;;;;80.00;7.10;;;;;;;21.15;79.07;99903.91;5115678;27;20078;-67
2022/08/17 10:12:38;;;;;;;28.37;4.13;;;;;;;20.99;79.73;99925.34;5131619;27;20085;-66
2022/08/17 10:15:47;;;;;;;21.27;4.27;;;;;;;20.84;80.00;99928.97;5132719;27;20574;-64
2022/08/17 10:28:19;;;;;;;27.77;4.50;;;;;;;20.49;79.70;99932.00;5130885;27;20277;-67
2022/08/17 10:31:12;;;;;;;19.30;4.13;;;;;;;20.35;79.90;99934.69;5132379;28;20299;-67
2022/08/17 10:37:49;;;;;;;4.63;3.08;;;;;;;19.99;81.20;99933.34;5131017;27;20321;-67
2022/08/17 10:40:43;;;;;;;7.97;3.33;;;;;;;19.72;81.91;99931.44;5129566;28;20058;-68
2022/08/17 10:43:54;;;;;;;9.97;3.00;;;;;;;19.76;82.50;99953.28;5112400;28;20285;-68
2022/08/17 10:47:13;;;;;;;9.00;3.03;;;;;;;19.45;83.15;99938.31;5131041;28;20298;-67
2022/08/17 10:53:13;;;;;;;7.03;3.20;;;;;;;19.46;84.31;99961.22;5131676;28;20305;-69
2022/08/17 10:56:24;;;;;;;9.53;3.53;;;;;;;19.39;85.26;99961.59;5072301;28;20304;-65
2022/08/17 10:59:55;;;;;;;11.87;3.70;;;;;;;19.29;86.24;99965.69;5129891;28;20332;-67
2022/08/17 11:03:02;;;;;;;7.97;4.35;;;;;;;19.18;86.96;99978.69;5135578;27;20310;-67
2022/08/17 11:09:12;;;;;;;11.97;3.40;;;;;;;19.07;87.23;99986.38;5111513;27;20071;-68
2022/08/17 11:12:28;;;;;;;25.03;4.07;;;;;;;18.95;87.92;99983.47;5103816;27;20286;-65
2022/08/17 11:15:31;;;;;;;11.57;3.53;;;;;;;18.96;87.94;99984.34;5056190;27;20295;-65
2022/08/17 11:18:43;;;;;;;22.73;4.00;;;;;;;18.98;87.91;99994.84;5135700;27;20299;-67
2022/08/17 11:24:57;;;;;;;108.00;8.50;;;;;;;18.94;87.70;99986.19;5135379;27;20132;-67
2022/08/17 11:27:48;;;;;;;30.63;5.20;;;;;;;18.70;87.95;99964.56;5132500;27;20296;-67
2022/08/17 11:30:56;;;;;;;21.77;5.10;;;;;;;18.73;88.55;99999.66;5134630;27;20079;-66
2022/08/17 11:37:31;;;;;;;16.70;3.53;;;;;;;18.47;90.00;100009.00;5135523;27;20294;-66
2022/08/17 11:41:05;;;;;;;7.40;3.57;;;;;;;18.40;90.70;100012.06;5114379;27;20324;-67
2022/08/17 11:44:23;;;;;;;8.50;3.80;;;;;;;18.31;91.41;100008.09;5102664;27;20341;-67
2022/08/17 11:54:19;;;;;;;33.57;4.40;;;;;;;18.16;92.84;100008.91;5107778;27;20292;-64
2022/08/17 11:57:44;;;;;;;21.80;4.80;;;;;;;18.16;93.09;100014.19;5135411;27;20293;-65
2022/08/17 12:00:55;;;;;;;36.57;5.60;;;;;;;18.15;93.39;100023.91;5134406;27;20286;-68
2022/08/17 12:07:04;;;;;;;15.00;3.80;;;;;;;17.92;94.57;100022.41;4643061;27;15058832;-66
2022/08/17 12:09:52;;;;;;;16.20;4.13;;;;;;;17.88;94.84;100020.88;5180999;27;20054;-64
2022/08/17 12:12:34;;;;;;;8.40;3.77;;;;;;;17.90;95.28;100024.31;5180115;27;20288;-67
2022/08/17 12:15:23;;;;;;;8.93;4.07;;;;;;;17.94;95.21;100020.56;5178636;27;20279;-65
2022/08/17 12:18:13;;;;;;;6.67;3.80;;;;;;;17.92;95.33;100022.41;5180404;27;20288;-68
2022/08/17 12:21:02;;;;;;;11.43;3.70;;;;;;;17.85;95.00;100006.03;5179860;27;20580;-68
2022/08/17 12:27:15;;;;;;;10.57;4.05;;;;;;;17.94;95.13;100028.50;5176880;27;20499;-66
2022/08/17 12:30:08;;;;;;;9.20;3.90;;;;;;;17.56;94.87;99965.19;5179833;27;20203;-68
2022/08/17 12:42:07;;;;;;;6.97;3.83;;;;;;;17.91;94.10;100026.00;5177662;27;20295;-65
2022/08/17 12:44:50;;;;;;;13.37;3.80;;;;;;;17.82;94.03;100023.81;5180029;27;20292;-65
2022/08/17 12:47:45;;;;;;;21.37;4.53;;;;;;;17.75;93.92;100019.75;5141973;27;20351;-66
2022/08/17 12:50:46;;;;;;;11.70;4.10;;;;;;;17.62;93.90;100017.72;5180280;27;20324;-67
2022/08/17 12:54:02;;;;;;;7.10;3.80;;;;;;;17.48;94.64;100017.53;5179476;27;20631;-66
2022/08/17 12:57:00;;;;;;;6.20;3.50;;;;;;;17.47;95.22;100031.66;5154951;27;20592;-66
2022/08/17 13:00:16;;;;;;;8.33;3.73;;;;;;;17.47;95.75;100026.38;5173038;27;20301;-65
2022/08/17 13:03:25;;;;;;;14.73;4.27;;;;;;;17.49;95.68;100021.88;5148108;27;20287;-67
2022/08/17 13:09:14;;;;;;;5.93;3.63;;;;;;;17.50;95.15;100015.69;5176953;27;20300;-66
2022/08/17 13:12:17;;;;;;;15.80;4.53;;;;;;;17.52;95.20;100027.00;5169146;27;20282;-67
2022/08/17 13:18:47;;;;;;;12.40;4.30;;;;;;;17.43;95.56;100028.31;5148417;27;20344;-65
2022/08/17 13:21:29;;;;;;;9.93;4.73;;;;;;;17.32;96.04;100016.56;5111703;27;20273;-66
2022/08/17 13:24:40;;;;;;;6.53;3.40;;;;;;;17.38;96.54;100021.56;5146427;27;20291;-65
2022/08/17 13:30:17;;;;;;;8.75;4.22;;;;;;;17.37;95.77;99998.72;5141263;27;20326;-67
2022/08/17 13:33:10;;;;;;;5.20;3.90;;;;;;;17.48;95.32;100017.53;5147441;27;20068;-64
2022/08/17 13:36:14;;;;;;;5.90;4.00;;;;;;;17.43;94.78;100016.91;5120044;27;20304;-66
2022/08/17 13:42:39;;;;;;;9.47;4.03;;;;;;;17.28;94.47;100020.31;5146820;27;20285;-65
2022/08/17 13:45:55;;;;;;;10.57;4.53;;;;;;;17.27;94.84;100018.56;5144694;27;20305;-66
2022/08/17 13:48:44;;;;;;;5.40;3.47;;;;;;;17.20;94.95;100021.53;5146835;27;20280;-63
2022/08/17 13:51:48;;;;;;;7.93;3.70;;;;;;;17.26;94.68;100023.00;5145734;27;20341;-62
2022/08/17 13:54:45;;;;;;;5.83;3.77;;;;;;;17.23;94.22;100018.72;5146725;27;20289;-64
2022/08/17 13:57:30;;;;;;;7.10;3.90;;;;;;;16.99;93.95;99980.28;5145107;27;20296;-63
2022/08/17 14:00:30;;;;;;;7.57;3.97;;;;;;;17.10;94.31;100006.16;5145670;27;20603;-64
2022/08/17 14:03:23;;;;;;;8.00;4.20;;;;;;;17.11;93.88;100008.75;5146722;27;20537;-66
2022/08/17 14:06:06;;;;;;;5.37;3.90;;;;;;;17.11;93.82;100016.66;5145829;27;20589;-64
2022/08/17 14:09:10;;;;;;;6.97;4.20;;;;;;;17.06;94.02;100015.19;5092342;27;20273;-64
2022/08/17 14:12:12;;;;;;;7.03;3.50;;;;;;;17.00;93.73;100018.97;5145721;27;20281;-63
2022/08/17 14:18:02;;;;;;;11.90;4.00;;;;;;;16.53;93.83;99963.94;5139914;27;20312;-63
2022/08/17 14:20:45;;;;;;;12.10;3.83;;;;;;;16.80;93.82;100015.47;5144930;27;20297;-63
2022/08/17 14:23:24;;;;;;;7.77;4.10;;;;;;;16.71;93.85;100015.84;5145431;27;20292;-63
2022/08/17 14:29:35;;;;;;;13.83;4.30;;;;;;;16.61;94.17;100018.03;5143513;27;20348;-64
2022/08/17 14:32:34;;;;;;;;;;;;;;;;;;;;;
2022/08/17 14:35:35;;;;;;;9.93;4.40;;;;;;;16.59;94.46;100022.53;5082174;27;20284;-64
2022/08/17 14:38:30;;;;;;;9.90;4.27;;;;;;;16.56;94.24;100019.19;5109889;27;20435;-61
2022/08/17 14:41:25;;;;;;;7.67;3.57;;;;;;;16.62;94.34;100026.81;5145687;27;20295;-63
2022/08/17 14:44:13;;;;;;;11.87;3.57;;;;;;;16.48;94.22;99981.75;5128832;27;20338;-66
2022/08/17 14:46:57;;;;;;;7.60;3.87;;;;;;;16.80;93.95;100028.66;5145395;27;20304;-65
2022/08/17 14:49:47;;;;;;;6.43;3.30;;;;;;;16.74;94.11;100022.75;5144743;27;20341;-64
2022/08/17 14:52:50;;;;;;;4.28;3.40;;;;;;;16.68;94.52;100016.00;5103751;27;20356;-64
2022/08/17 14:55:35;;;;;;;9.65;3.45;;;;;;;16.73;94.89;100024.56;5113143;27;20035;-61
2022/08/17 15:01:29;;;;;;;8.67;4.47;;;;;;;16.75;96.02;100020.06;5144500;27;20327;-63
2022/08/17 15:04:05;;;;;;;5.37;3.83;;;;;;;16.75;96.33;100022.72;5112971;27;20284;-64
2022/08/17 15:06:43;;;;;;;6.93;4.17;;;;;;;16.84;96.33;100031.16;5144518;27;20324;-64
2022/08/17 15:09:44;;;;;;;4.87;3.50;;;;;;;16.87;96.26;100036.28;5153954;27;20364;-64
2022/08/17 15:12:33;;;;;;;6.70;3.90;;;;;;;16.86;95.96;100039.84;5113308;27;20764;-64
2022/08/17 15:15:50;;;;;;;9.00;3.80;;;;;;;16.90;96.04;100041.41;5165503;27;20337;-64
2022/08/17 15:18:39;;;;;;;7.37;5.17;;;;;;;16.97;95.64;100053.41;5162740;27;20332;-65
2022/08/17 15:24:37;;;;;;;10.13;6.03;;;;;;;16.98;96.83;100060.41;5164776;27;20277;-65
2022/08/17 15:27:24;;;;;;;13.57;6.33;;;;;;;17.03;96.83;100068.97;5165738;27;20304;-63
2022/08/17 15:30:07;;;;;;;11.77;6.80;;;;;;;16.98;96.75;100066.53;5086810;27;20287;-63
2022/08/17 15:32:55;;;;;;;11.03;6.27;;;;;;;16.90;96.81;100062.53;5165879;27;20309;-65
2022/08/17 15:35:36;;;;;;;16.63;7.30;;;;;;;16.75;97.02;100038.53;5152884;27;20292;-66
2022/08/17 15:38:24;;;;;;;15.53;7.07;;;;;;;16.81;97.44;100054.09;5155959;27;20289;-64
2022/08/17 15:41:18;;;;;;;15.90;6.93;;;;;;;16.74;97.67;100047.34;5147707;27;20352;-64
2022/08/17 15:44:05;;;;;;;15.20;7.10;;;;;;;16.78;97.73;100048.97;5145178;27;20300;-65
2022/08/17 15:46:42;;;;;;;18.37;6.30;;;;;;;16.74;98.03;100042.09;5143679;27;20289;-64
2022/08/17 15:49:44;;;;;;;7.10;4.70;;;;;;;16.75;98.41;100041.19;5144796;27;20296;-63
2022/08/17 15:52:26;;;;;;;11.70;4.93;;;;;;;16.80;98.60;100036.56;5100169;27;20284;-64
2022/08/17 15:55:17;;;;;;;7.83;4.63;;;;;;;16.76;98.43;100018.28;5144605;27;20312;-64
2022/08/17 15:58:00;;;;;;;5.93;4.13;;;;;;;16.97;98.54;100032.28;5110788;28;20296;-63
2022/08/17 16:01:04;;;;;;;6.00;4.30;;;;;;;16.97;99.10;100005.91;5143757;27;20055;-65
2022/08/17 16:04:15;;;;;;;7.63;4.33;;;;;;;17.23;99.20;100024.00;5144480;27;20301;-63
2022/08/17 16:07:06;;;;;;;6.47;3.38;;;;;;;17.33;99.71;100034.13;5097818;28;20502;-63
2022/08/17 16:09:55;;;;;;;7.07;4.20;;;;;;;17.19;99.21;99996.03;5123010;28;20048;-63
2022/08/17 16:12:46;;;;;;;9.70;3.70;;;;;;;17.30;98.96;100002.56;5123949;28;20277;-64
2022/08/17 16:15:49;;;;;;;5.77;3.70;;;;;;;17.54;99.29;100026.94;5124119;28;20424;-65
2022/08/17 16:18:38;;;;;;;6.07;3.37;;;;;;;17.52;99.74;100013.81;5091258;28;20289;-64
2022/08/17 16:21:34;;;;;;;8.80;3.80;;;;;;;17.60;100.00;100011.66;5123449;28;20297;-62
2022/08/17 16:24:33;;;;;;;6.53;3.70;;;;;;;17.73;100.00;100011.06;5123356;28;20345;-63
2022/08/17 16:27:58;;;;;;;8.47;4.03;;;;;;;17.84;100.00;100014.03;5122765;28;20309;-65
2022/08/17 16:30:58;;;;;;;8.13;3.58;;;;;;;17.98;100.00;100016.84;5123058;28;20285;-63
2022/08/17 16:33:38;;;;;;;6.63;3.60;;;;;;;18.02;99.53;100015.75;5123405;28;20047;-65
2022/08/17 16:36:19;;;;;;;6.40;3.50;;;;;;;18.04;99.26;100015.66;5123823;28;20351;-67
2022/08/17 16:39:07;;;;;;;5.87;3.37;;;;;;;18.05;98.56;100007.66;5089047;28;20321;-66
2022/08/17 16:42:08;;;;;;;5.93;3.27;;;;;;;18.05;98.48;100001.53;5123762;28;20282;-67
2022/08/17 16:44:46;;;;;;;5.80;3.27;;;;;;;17.90;98.25;99982.03;5123122;28;20290;-66
2022/08/17 16:47:25;;;;;;;10.47;3.37;;;;;;;18.07;98.06;99999.63;5090683;28;20311;-64
2022/08/17 16:50:12;;;;;;;4.47;3.40;;;;;;;18.09;98.00;100009.19;5123409;28;20323;-66
2022/08/17 16:52:56;;;;;;;4.93;3.10;;;;;;;18.14;97.94;100001.03;5126055;28;20313;-66
2022/08/17 16:55:39;;;;;;;5.97;3.20;;;;;;;18.20;97.86;100005.16;5109333;28;20278;-66
2022/08/17 16:58:19;;;;;;;9.50;3.93;;;;;;;17.61;96.97;99931.47;5078622;28;20289;-64
2022/08/17 17:01:05;;;;;;;7.30;4.17;;;;;;;17.78;96.61;100003.75;5127195;28;20330;-65
2022/08/17 17:03:56;;;;;;;7.00;4.67;;;;;;;17.59;96.81;99999.38;5094467;28;20285;-63
2022/08/17 17:06:59;;;;;;;6.97;4.10;;;;;;;17.46;96.86;99993.00;5137181;27;20356;-64
2022/08/17 17:10:10;;;;;;;9.93;4.60;;;;;;;17.43;96.84;100003.72;5147709;27;20280;-63
2022/08/17 17:13:08;;;;;;;9.13;4.23;;;;;;;17.12;96.55;99956.78;5146425;27;20297;-64
2022/08/17 17:15:56;;;;;;;8.20;3.90;;;;;;;17.30;96.42;99997.28;5147641;27;20520;-63
2022/08/17 17:18:52;;;;;;;8.63;4.43;;;;;;;17.29;96.31;100006.16;5146770;27;20289;-65
2022/08/17 17:21:55;;;;;;;9.53;3.90;;;;;;;17.28;95.89;100004.47;5146090;27;20289;-63
2022/08/17 17:25:14;;;;;;;4.93;3.80;;;;;;;17.20;95.87;100003.03;5146526;27;20335;-62
2022/08/17 17:28:00;;;;;;;6.50;4.07;;;;;;;17.19;95.64;100011.88;5146548;27;20328;-63
2022/08/17 17:31:13;;;;;;;10.10;4.60;;;;;;;17.14;95.65;100003.31;5147463;27;20291;-62
2022/08/17 17:34:14;;;;;;;8.03;5.13;;;;;;;16.73;95.62;99939.28;5147555;27;20322;-63
2022/08/17 17:37:16;;;;;;;12.50;5.33;;;;;;;17.01;95.84;100002.19;5112169;27;20592;-64
2022/08/17 17:40:00;;;;;;;11.10;5.10;;;;;;;16.98;96.42;99997.06;5145637;27;20295;-62
2022/08/17 17:42:32;;;;;;;;;;;;;;;16.95;96.65;99997.22;5098673;27;20573;-62
2022/08/17 17:45:19;;;;;;;8.87;5.70;;;;;;;16.96;96.84;99993.63;5111284;27;19915;-62
2022/08/17 17:47:59;;;;;;;9.93;5.80;;;;;;;16.92;97.26;99981.50;5146984;27;20311;-61
2022/08/17 17:51:00;;;;;;;12.13;5.60;;;;;;;16.90;97.21;99983.34;5147366;27;20289;-62
2022/08/17 17:53:53;;;;;;;13.40;5.13;;;;;;;16.91;97.38;99991.22;5146915;27;20342;-62
2022/08/17 17:59:53;;;;;;;10.53;6.00;;;;;;;17.02;97.47;99993.34;5107126;27;20324;-61
2022/08/17 18:02:54;;;;;;;8.17;5.87;;;;;;;17.01;97.88;99991.63;5076256;27;20285;-64
2022/08/17 18:06:06;;;;;;;16.70;6.53;;;;;;;17.01;98.37;99999.56;5144629;27;20777;-63